createdAt,value
2019-03-22T00:02:34.764Z,13.17
2019-03-22T00:05:39.213Z,12.30
2019-03-22T00:08:43.652Z,10.33
2019-03-22T00:11:48.073Z,8.67
2019-03-22T00:14:52.568Z,8.50
2019-03-22T00:17:56.950Z,10.60
2019-03-22T00:21:01.713Z,11.03
2019-03-22T00:24:06.446Z,8.43
2019-03-22T00:27:16.367Z,9.07
2019-03-22T00:30:17.447Z,11.90
2019-03-22T00:33:21.886Z,12.10
2019-03-22T00:36:26.596Z,10.63
2019-03-22T00:39:31.041Z,12.90
2019-03-22T00:42:35.482Z,11.97
2019-03-22T00:45:39.921Z,12.50
2019-03-22T00:48:44.699Z,8.57
2019-03-22T00:51:49.130Z,8.10
2019-03-22T00:54:53.573Z,10.07
2019-03-22T00:57:57.997Z,12.03
2019-03-22T01:01:02.435Z,9.80
2019-03-22T01:04:06.875Z,10.40
2019-03-22T01:07:11.774Z,11.00
2019-03-22T01:10:16.270Z,10.73
2019-03-22T01:13:20.702Z,10.87
2019-03-22T01:16:25.142Z,9.50
2019-03-22T01:19:29.639Z,9.13
2019-03-22T01:22:34.015Z,10.40
2019-03-22T01:25:38.451Z,12.37
2019-03-22T01:28:43.127Z,11.30
2019-03-22T01:31:47.855Z,8.33
2019-03-22T01:34:52.595Z,10.87
2019-03-22T01:37:57.326Z,10.00
2019-03-22T01:41:01.760Z,9.60
2019-03-22T01:44:06.482Z,10.13
2019-03-22T01:47:10.923Z,10.27
2019-03-22T01:50:19.172Z,10.60
2019-03-22T01:53:23.597Z,9.97
2019-03-22T01:56:28.367Z,9.80
2019-03-22T01:59:33.095Z,9.50
2019-03-22T02:02:37.528Z,9.37
2019-03-22T02:05:47.726Z,12.43
2019-03-22T02:08:52.529Z,8.63
2019-03-22T02:11:57.245Z,9.63
2019-03-22T02:15:01.977Z,11.10
2019-03-22T02:18:06.701Z,8.63
2019-03-22T02:21:11.437Z,10.13
2019-03-22T02:24:16.169Z,9.97
2019-03-22T02:27:20.594Z,9.97
2019-03-22T02:30:25.026Z,9.20
2019-03-22T02:33:29.462Z,8.43
2019-03-22T02:36:33.900Z,10.57
2019-03-22T02:39:38.389Z,13.77
2019-03-22T02:42:42.944Z,11.93
2019-03-22T02:45:47.854Z,12.83
2019-03-22T02:48:52.275Z,10.73
2019-03-22T02:51:57.004Z,9.27
2019-03-22T02:55:01.460Z,10.53
2019-03-22T02:58:19.872Z,8.73
2019-03-22T03:01:12.182Z,9.20
2019-03-22T03:04:16.617Z,9.47
2019-03-22T03:07:21.370Z,12.60
2019-03-22T03:10:26.312Z,10.57
2019-03-22T03:13:30.736Z,9.77
2019-03-22T03:16:35.765Z,13.37
2019-03-22T03:19:40.443Z,13.07
2019-03-22T03:22:44.946Z,10.20
2019-03-22T03:25:49.370Z,12.57
2019-03-22T03:28:54.261Z,12.47
2019-03-22T03:31:58.701Z,9.97
2019-03-22T03:35:03.156Z,10.03
2019-03-22T03:38:08.068Z,12.77
2019-03-22T03:41:12.998Z,11.97
2019-03-22T03:44:17.428Z,13.33
2019-03-22T03:47:21.977Z,14.20
2019-03-22T03:50:26.397Z,8.67
2019-03-22T03:53:30.829Z,9.40
2019-03-22T03:56:35.288Z,12.77
2019-03-22T03:59:39.704Z,11.00
2019-03-22T04:02:44.890Z,12.57
2019-03-22T04:05:49.633Z,11.93
2019-03-22T04:08:54.070Z,12.53
2019-03-22T04:11:58.778Z,12.30
2019-03-22T04:15:03.470Z,15.90
2019-03-22T04:18:07.908Z,11.13
2019-03-22T04:21:12.346Z,14.80
2019-03-22T04:24:16.788Z,12.50
2019-03-22T04:27:21.229Z,12.13
2019-03-22T04:30:25.663Z,10.70
2019-03-22T04:33:30.102Z,12.13
2019-03-22T04:36:34.876Z,15.27
2019-03-22T04:39:39.316Z,10.90
2019-03-22T04:42:43.764Z,11.70
2019-03-22T04:45:48.831Z,11.53
2019-03-22T04:48:54.154Z,9.23
2019-03-22T04:51:59.118Z,12.33
2019-03-22T04:55:05.306Z,9.87
2019-03-22T04:58:12.308Z,10.23
2019-03-22T05:01:18.469Z,12.47
2019-03-22T05:04:25.585Z,11.97
2019-03-22T05:07:30.894Z,13.80
2019-03-22T05:10:37.262Z,9.67
2019-03-22T05:13:44.334Z,9.33
2019-03-22T05:16:50.947Z,8.07
2019-03-22T05:19:58.121Z,15.13
2019-03-22T05:23:04.374Z,13.93
2019-03-22T05:26:09.733Z,9.17
2019-03-22T05:29:15.118Z,11.90
2019-03-22T05:32:19.607Z,11.23
2019-03-22T05:35:24.053Z,12.37
2019-03-22T05:38:28.742Z,12.70
2019-03-22T05:41:33.173Z,11.73
2019-03-22T05:44:37.899Z,9.17
2019-03-22T05:47:42.349Z,12.70
2019-03-22T05:50:46.777Z,10.87
2019-03-22T05:53:51.472Z,13.97
2019-03-22T05:56:55.911Z,11.80
2019-03-22T06:00:00.354Z,14.30
2019-03-22T06:03:05.163Z,11.30
2019-03-22T06:06:09.596Z,16.20
2019-03-22T06:09:14.037Z,12.90
2019-03-22T06:12:18.463Z,18.47
2019-03-22T06:15:22.903Z,15.33
2019-03-22T06:18:27.337Z,14.20
2019-03-22T06:21:31.783Z,20.23
2019-03-22T06:24:36.532Z,13.60
2019-03-22T06:27:40.966Z,18.20
2019-03-22T06:30:45.791Z,20.80
2019-03-22T06:33:50.222Z,16.60
2019-03-22T06:36:54.943Z,28.40
2019-03-22T06:39:59.678Z,18.07
2019-03-22T06:43:04.405Z,18.27
2019-03-22T06:46:09.132Z,12.33
2019-03-22T06:49:13.574Z,14.40
2019-03-22T06:52:18.022Z,18.80
2019-03-22T06:55:22.473Z,16.37
2019-03-22T06:58:26.915Z,13.03
2019-03-22T07:01:31.770Z,17.23
2019-03-22T07:04:36.493Z,17.23
2019-03-22T07:07:41.232Z,22.98
2019-03-22T07:10:45.667Z,19.65
2019-03-22T07:13:50.378Z,17.25
2019-03-22T07:16:54.851Z,15.23
2019-03-22T07:19:59.354Z,13.88
2019-03-22T07:23:04.058Z,17.25
2019-03-22T07:26:08.786Z,11.33
2019-03-22T07:29:13.232Z,18.43
2019-03-22T07:32:17.691Z,18.00
2019-03-22T07:35:22.485Z,17.47
2019-03-22T07:38:26.918Z,19.53
2019-03-22T07:41:31.626Z,16.90
2019-03-22T07:44:36.358Z,19.70
2019-03-22T07:47:41.089Z,19.93
2019-03-22T07:50:45.819Z,23.23
2019-03-22T07:53:50.254Z,21.60
2019-03-22T07:56:54.971Z,20.60
2019-03-22T07:59:59.410Z,17.73
2019-03-22T08:03:04.123Z,17.90
2019-03-22T08:06:08.575Z,19.70
2019-03-22T08:09:13.001Z,20.93
2019-03-22T08:12:19.491Z,18.33
2019-03-22T08:15:30.063Z,18.30
2019-03-22T08:18:34.741Z,21.20
2019-03-22T08:21:39.213Z,20.17
2019-03-22T08:24:43.647Z,22.83
2019-03-22T08:27:48.060Z,19.77
2019-03-22T08:30:52.868Z,20.97
2019-03-22T08:33:57.575Z,21.37
2019-03-22T08:37:02.012Z,21.90
2019-03-22T08:40:08.169Z,16.23
2019-03-22T08:43:12.611Z,24.73
2019-03-22T08:46:17.058Z,22.20
2019-03-22T08:49:21.878Z,19.47
2019-03-22T08:52:26.504Z,19.37
2019-03-22T08:55:30.941Z,18.40
2019-03-22T08:58:35.410Z,17.30
2019-03-22T09:01:39.819Z,15.87
2019-03-22T09:04:44.581Z,19.37
2019-03-22T09:07:49.091Z,16.13
2019-03-22T09:10:53.554Z,20.07
2019-03-22T09:13:58.565Z,18.47
2019-03-22T09:17:03.042Z,18.43
2019-03-22T09:20:11.701Z,19.27
2019-03-22T09:23:16.159Z,22.20
2019-03-22T09:26:20.595Z,18.03
2019-03-22T09:29:25.303Z,16.97
2019-03-22T09:32:30.022Z,25.47
2019-03-22T09:35:34.465Z,19.10
2019-03-22T09:38:38.991Z,19.17
2019-03-22T09:41:43.409Z,17.07
2019-03-22T09:44:48.910Z,18.33
2019-03-22T09:47:53.618Z,20.03
2019-03-22T09:50:58.357Z,22.13
2019-03-22T09:54:03.060Z,19.90
2019-03-22T09:57:07.977Z,24.53
2019-03-22T10:00:29.153Z,19.80
2019-03-22T10:03:33.549Z,17.83
2019-03-22T10:06:38.266Z,18.40
2019-03-22T10:09:42.684Z,18.43
2019-03-22T10:12:47.136Z,17.10
2019-03-22T10:15:51.924Z,20.60
2019-03-22T10:18:56.378Z,19.37
2019-03-22T10:22:01.087Z,20.17
2019-03-22T10:25:08.047Z,20.47
2019-03-22T10:28:12.790Z,18.50
2019-03-22T10:31:17.237Z,17.07
2019-03-22T10:34:22.104Z,21.67
2019-03-22T10:37:26.904Z,17.70
2019-03-22T10:40:31.660Z,15.50
2019-03-22T10:43:36.409Z,17.37
2019-03-22T10:46:41.176Z,19.47
2019-03-22T10:49:45.989Z,16.83
2019-03-22T10:52:50.448Z,16.63
2019-03-22T10:55:55.162Z,16.60
2019-03-22T10:58:59.895Z,17.93
2019-03-22T11:02:07.679Z,17.87
2019-03-22T11:05:11.303Z,15.20
2019-03-22T11:08:16.039Z,17.20
2019-03-22T11:11:20.482Z,15.13
2019-03-22T11:14:24.935Z,17.47
2019-03-22T11:17:29.379Z,16.20
2019-03-22T11:20:33.873Z,17.27
2019-03-22T11:23:38.334Z,16.63
2019-03-22T11:26:43.085Z,15.20
2019-03-22T11:29:47.812Z,17.77
2019-03-22T11:32:52.544Z,16.62
2019-03-22T11:35:57.000Z,14.98
2019-03-22T11:39:03.897Z,13.72
2019-03-22T11:42:07.667Z,16.12
2019-03-22T11:45:20.460Z,14.18
2019-03-22T11:48:24.897Z,14.27
2019-03-22T11:51:29.753Z,18.37
2019-03-22T11:54:34.466Z,13.73
2019-03-22T11:57:39.298Z,12.73
2019-03-22T12:00:44.024Z,11.00
2019-03-22T12:03:48.493Z,14.75
2019-03-22T12:06:52.945Z,12.93
2019-03-22T12:09:57.709Z,14.50
2019-03-22T12:13:02.152Z,10.78
2019-03-22T12:16:06.966Z,12.88
2019-03-22T12:19:11.408Z,13.70
2019-03-22T12:22:15.870Z,14.07
2019-03-22T12:25:25.791Z,15.32
2019-03-22T12:28:30.604Z,14.98
2019-03-22T12:31:35.054Z,13.77
2019-03-22T12:34:39.516Z,13.98
2019-03-22T12:37:44.595Z,13.10
2019-03-22T12:40:49.046Z,13.97
2019-03-22T12:43:53.736Z,11.22
2019-03-22T12:46:58.480Z,13.93
2019-03-22T12:50:03.209Z,11.48
2019-03-22T12:53:07.939Z,12.55
2019-03-22T12:56:12.398Z,10.82
2019-03-22T12:59:16.839Z,11.73
2019-03-22T13:02:21.632Z,14.13
2019-03-22T13:05:26.857Z,11.10
2019-03-22T13:08:31.273Z,11.03
2019-03-22T13:11:35.726Z,13.03
2019-03-22T13:14:40.436Z,12.40
2019-03-22T13:17:44.882Z,13.15
2019-03-22T13:20:51.092Z,12.73
2019-03-22T13:23:55.955Z,14.00
2019-03-22T13:27:00.401Z,10.65
2019-03-22T13:30:29.581Z,9.93
2019-03-22T13:33:34.315Z,11.63
2019-03-22T13:36:38.757Z,11.25
2019-03-22T13:39:43.469Z,10.95
2019-03-22T13:42:47.921Z,10.48
2019-03-22T13:45:52.368Z,12.00
2019-03-22T13:48:57.195Z,10.28
2019-03-22T13:52:01.611Z,10.68
2019-03-22T13:55:07.768Z,10.90
2019-03-22T13:58:12.213Z,11.28
2019-03-22T14:01:16.996Z,11.53
2019-03-22T14:04:21.726Z,8.33
2019-03-22T14:07:26.459Z,11.43
2019-03-22T14:10:36.316Z,11.25
2019-03-22T14:13:40.754Z,11.73
2019-03-22T14:16:45.212Z,14.35
2019-03-22T14:19:49.646Z,14.80
2019-03-22T14:22:54.418Z,14.07
2019-03-22T14:25:58.862Z,12.15
2019-03-22T14:29:03.312Z,11.15
2019-03-22T14:32:08.501Z,11.73
2019-03-22T14:35:13.239Z,10.50
2019-03-22T14:38:17.675Z,9.83
2019-03-22T14:41:22.395Z,11.45
2019-03-22T14:44:28.273Z,8.55
2019-03-22T14:47:32.844Z,7.17
2019-03-22T14:50:37.284Z,7.65
2019-03-22T14:53:41.730Z,10.00
2019-03-22T14:56:46.555Z,12.07
2019-03-22T14:59:58.541Z,11.35
2019-03-22T15:02:57.757Z,14.10
2019-03-22T15:06:02.488Z,12.35
2019-03-22T15:09:08.272Z,11.28
2019-03-22T15:12:12.802Z,10.55
2019-03-22T15:15:17.007Z,9.23
2019-03-22T15:18:33.289Z,11.75
2019-03-22T15:21:55.751Z,12.53
2019-03-22T15:25:05.944Z,11.93
2019-03-22T15:28:27.231Z,9.73
2019-03-22T15:31:49.655Z,10.30
2019-03-22T15:35:12.193Z,10.05
2019-03-22T15:38:33.525Z,10.08
2019-03-22T15:41:38.355Z,7.37
2019-03-22T15:44:43.089Z,7.85
2019-03-22T15:47:47.817Z,10.35
2019-03-22T15:50:52.551Z,10.35
2019-03-22T15:53:57.277Z,13.08
2019-03-22T15:57:01.912Z,16.82
2019-03-22T16:00:11.245Z,9.50
2019-03-22T16:03:15.985Z,11.40
2019-03-22T16:06:20.562Z,14.73
2019-03-22T16:09:25.015Z,11.85
2019-03-22T16:12:29.762Z,10.17
2019-03-22T16:15:34.493Z,11.27
2019-03-22T16:18:38.940Z,10.38
2019-03-22T16:21:43.649Z,12.68
2019-03-22T16:24:48.381Z,16.10
2019-03-22T16:27:52.824Z,20.85
2019-03-22T16:30:57.267Z,19.00
2019-03-22T16:34:02.059Z,13.18
2019-03-22T16:37:06.502Z,12.93
2019-03-22T16:40:23.657Z,15.85
2019-03-22T16:43:20.295Z,14.30
2019-03-22T16:46:24.733Z,16.75
2019-03-22T16:49:29.192Z,14.87
2019-03-22T16:52:33.637Z,14.90
2019-03-22T16:55:38.097Z,15.20
2019-03-22T16:58:42.555Z,12.90
2019-03-22T17:01:46.994Z,17.45
2019-03-22T17:04:51.832Z,14.98
2019-03-22T17:07:56.276Z,14.33
2019-03-22T17:11:00.979Z,17.73
2019-03-22T17:14:06.008Z,17.10
2019-03-22T17:17:10.553Z,19.07
2019-03-22T17:20:15.342Z,17.10
2019-03-22T17:23:20.112Z,17.10
2019-03-22T17:26:24.846Z,18.13
2019-03-22T17:29:29.287Z,17.67
2019-03-22T17:32:33.991Z,19.70
2019-03-22T17:35:38.730Z,15.73
2019-03-22T17:38:43.180Z,16.83
2019-03-22T17:41:47.618Z,16.63
2019-03-22T17:44:52.405Z,20.60
2019-03-22T17:47:57.137Z,17.63
2019-03-22T17:51:01.858Z,16.53
2019-03-22T17:54:06.310Z,16.20
2019-03-22T17:57:18.395Z,17.87
2019-03-22T18:00:20.631Z,17.10
2019-03-22T18:03:25.389Z,17.93
2019-03-22T18:06:29.849Z,16.03
2019-03-22T18:09:34.300Z,18.63
2019-03-22T18:12:39.067Z,14.27
2019-03-22T18:15:43.805Z,19.50
2019-03-22T18:18:48.561Z,19.97
2019-03-22T18:21:54.595Z,17.17
2019-03-22T18:24:59.105Z,18.03
2019-03-22T18:28:03.551Z,18.37
2019-03-22T18:31:08.274Z,22.10
2019-03-22T18:34:12.749Z,22.33
2019-03-22T18:37:17.529Z,18.47
2019-03-22T18:40:21.977Z,21.53
2019-03-22T18:43:26.689Z,18.80
2019-03-22T18:46:31.145Z,23.77
2019-03-22T18:49:35.601Z,22.77
2019-03-22T18:52:40.041Z,22.23
2019-03-22T18:55:44.790Z,22.57
2019-03-22T18:58:49.521Z,21.27
2019-03-22T19:01:53.969Z,21.90
2019-03-22T19:04:58.684Z,19.17
2019-03-22T19:08:03.402Z,24.53
2019-03-22T19:11:08.138Z,23.17
2019-03-22T19:14:12.870Z,23.20
2019-03-22T19:17:17.318Z,26.00
2019-03-22T19:20:22.017Z,23.77
2019-03-22T19:23:26.458Z,23.63
2019-03-22T19:26:30.910Z,25.37
2019-03-22T19:29:35.710Z,22.73
2019-03-22T19:32:40.430Z,24.93
2019-03-22T19:35:44.883Z,23.70
2019-03-22T19:38:49.328Z,22.37
2019-03-22T19:41:53.778Z,23.13
2019-03-22T19:44:58.536Z,23.87
2019-03-22T19:48:02.985Z,26.27
2019-03-22T19:51:07.433Z,21.00
2019-03-22T19:54:11.876Z,23.37
2019-03-22T19:57:16.638Z,22.27
2019-03-22T20:00:21.575Z,22.07
2019-03-22T20:03:26.310Z,29.40
2019-03-22T20:06:30.753Z,26.60
2019-03-22T20:09:35.206Z,29.20
2019-03-22T20:12:39.647Z,31.50
2019-03-22T20:15:44.104Z,28.27
2019-03-22T20:18:48.537Z,26.70
2019-03-22T20:21:52.993Z,32.47
2019-03-22T20:24:57.442Z,35.63
2019-03-22T20:28:02.304Z,27.23
2019-03-22T20:31:06.752Z,27.33
2019-03-22T20:34:11.191Z,29.40
2019-03-22T20:37:15.626Z,30.23
2019-03-22T20:40:20.598Z,29.67
2019-03-22T20:43:25.046Z,27.47
2019-03-22T20:46:29.491Z,26.90
2019-03-22T20:49:33.919Z,24.13
2019-03-22T20:52:38.371Z,22.17
2019-03-22T20:55:43.142Z,22.63
2019-03-22T20:58:47.584Z,23.10
2019-03-22T21:01:52.300Z,24.97
2019-03-22T21:04:56.722Z,23.70
2019-03-22T21:08:01.166Z,22.37
2019-03-22T21:11:05.972Z,24.67
2019-03-22T21:14:10.398Z,22.03
2019-03-22T21:17:16.247Z,23.20
2019-03-22T21:20:20.877Z,19.97
2019-03-22T21:23:35.740Z,25.00
2019-03-22T21:26:31.477Z,26.40
2019-03-22T21:29:44.144Z,24.77
2019-03-22T21:32:45.602Z,22.70
2019-03-22T21:35:49.660Z,21.83
2019-03-22T21:38:54.111Z,21.33
2019-03-22T21:41:58.814Z,26.23
2019-03-22T21:45:03.954Z,18.40
2019-03-22T21:48:08.683Z,21.10
2019-03-22T21:51:13.107Z,22.60
2019-03-22T21:54:17.547Z,19.20
2019-03-22T21:57:21.990Z,20.20
2019-03-22T22:00:26.420Z,22.87
2019-03-22T22:03:31.110Z,18.80
2019-03-22T22:06:35.544Z,20.50
2019-03-22T22:09:39.992Z,21.37
2019-03-22T22:12:44.684Z,16.13
2019-03-22T22:15:49.130Z,20.13
2019-03-22T22:18:53.841Z,18.93
2019-03-22T22:21:58.286Z,17.23
2019-03-22T22:25:02.986Z,20.03
2019-03-22T22:28:07.729Z,18.87
2019-03-22T22:31:12.161Z,21.00
2019-03-22T22:34:16.601Z,17.03
2019-03-22T22:37:21.035Z,19.00
2019-03-22T22:40:25.722Z,20.40
2019-03-22T22:43:32.881Z,20.13
2019-03-22T22:46:37.442Z,20.53
2019-03-22T22:49:41.889Z,19.77
2019-03-22T22:52:46.596Z,22.33
2019-03-22T22:55:51.325Z,21.13
2019-03-22T22:58:55.774Z,20.87
2019-03-22T23:02:00.483Z,20.90
2019-03-22T23:05:06.458Z,21.13
2019-03-22T23:08:10.895Z,22.93
2019-03-22T23:11:15.507Z,22.77
2019-03-22T23:14:19.949Z,24.67
2019-03-22T23:17:24.648Z,23.97
2019-03-22T23:20:29.095Z,19.50
2019-03-22T23:23:33.530Z,20.67
2019-03-22T23:26:38.227Z,23.47
2019-03-22T23:29:42.952Z,21.93
2019-03-22T23:32:47.688Z,22.13
2019-03-22T23:35:52.130Z,21.90
2019-03-22T23:38:56.587Z,23.20
2019-03-22T23:42:00.999Z,20.13
2019-03-22T23:45:09.264Z,21.83
2019-03-22T23:48:13.694Z,20.83
2019-03-22T23:51:18.130Z,21.43
2019-03-22T23:54:22.847Z,21.67
2019-03-22T23:57:27.286Z,24.17
